Terminal Aerodrome Forecast
Issued by NWS Tampa Bay Area, FL

Home | Current Version | Previous Version | Text Only | Print | Product List | Glossary On
Versions: 1 2 3 4 5 6 7 8 9 10 11 12 13 14 15 16 17 18 19 20 21 22 23
440
FTUS42 KTBW 062145 AAC
TAFFMY
TAF AMD
KFMY 062145Z 0622/0718 31010KT 6SM -RA BR BKN008 BKN020
      TEMPO 0622/0702 3SM RA BR BKN005
     FM070200 33012G17KT 6SM BR VCSH BKN007 BKN015
     FM070900 33013G19KT P6SM BKN020 BKN100
     FM071200 33016G26KT P6SM SCT020
     FM071500 33017G26KT P6SM SKC=

USA.gov is the U.S. government's official web portal to all federal, state and local government web resources and services.